createdAt,value
2018-04-24T00:02:21.528Z,58.27
2018-04-24T00:04:50.210Z,58.46
2018-04-24T00:07:18.428Z,58.05
2018-04-24T00:09:46.693Z,58.28
2018-04-24T00:12:15.487Z,57.98
2018-04-24T00:14:43.721Z,58.06
2018-04-24T00:17:11.918Z,58.38
2018-04-24T00:19:40.549Z,59.41
2018-04-24T00:22:08.778Z,58.53
2018-04-24T00:24:36.985Z,59.30
2018-04-24T00:27:05.687Z,59.28
2018-04-24T00:29:33.920Z,59.21
2018-04-24T00:32:02.121Z,60.30
2018-04-24T00:34:30.963Z,60.97
2018-04-24T00:36:59.183Z,59.95
2018-04-24T00:39:27.373Z,60.04
2018-04-24T00:41:56.168Z,61.65
2018-04-24T00:44:24.405Z,60.91
2018-04-24T00:46:52.599Z,61.48
2018-04-24T00:49:21.160Z,61.86
2018-04-24T00:51:49.400Z,62.02
2018-04-24T00:54:17.618Z,62.40
2018-04-24T00:56:46.333Z,62.17
2018-04-24T00:59:14.667Z,61.88
2018-04-24T01:01:42.858Z,61.44
2018-04-24T01:04:11.539Z,61.77
2018-04-24T01:06:39.817Z,62.17
2018-04-24T01:09:08.788Z,62.42
2018-04-24T01:11:37.242Z,61.50
2018-04-24T01:14:05.928Z,62.25
2018-04-24T01:16:34.167Z,62.01
2018-04-24T01:19:02.397Z,62.01
2018-04-24T01:21:31.270Z,61.86
2018-04-24T01:23:59.461Z,62.14
2018-04-24T01:26:28.193Z,62.11
2018-04-24T01:28:56.790Z,62.27
2018-04-24T01:31:25.008Z,62.38
2018-04-24T01:33:53.444Z,62.56
2018-04-24T01:36:21.912Z,62.43
2018-04-24T01:38:50.141Z,62.42
2018-04-24T01:41:18.563Z,62.43
2018-04-24T01:43:47.253Z,62.35
2018-04-24T01:46:15.472Z,62.67
2018-04-24T01:48:43.745Z,63.09
2018-04-24T01:51:12.407Z,63.07
2018-04-24T01:53:40.609Z,63.23
2018-04-24T01:56:09.024Z,63.28
2018-04-24T01:58:37.620Z,63.93
2018-04-24T02:01:05.819Z,63.90
2018-04-24T02:03:34.084Z,63.60
2018-04-24T02:06:02.803Z,64.01
2018-04-24T02:08:31.004Z,63.86
2018-04-24T02:10:59.343Z,64.32
2018-04-24T02:13:28.069Z,64.11
2018-04-24T02:15:56.274Z,64.25
2018-04-24T02:18:24.450Z,63.74
2018-04-24T02:20:53.051Z,63.97
2018-04-24T02:23:21.256Z,64.34
2018-04-24T02:25:49.565Z,64.20
2018-04-24T02:28:18.266Z,64.35
2018-04-24T02:30:46.527Z,64.97
2018-04-24T02:33:14.749Z,65.00
2018-04-24T02:35:43.294Z,65.10
2018-04-24T02:38:11.497Z,65.78
2018-04-24T02:40:39.980Z,65.09
2018-04-24T02:43:08.497Z,64.98
2018-04-24T02:45:36.699Z,64.87
2018-04-24T02:48:05.065Z,65.98
2018-04-24T02:50:33.844Z,65.17
2018-04-24T02:53:01.984Z,65.12
2018-04-24T02:55:30.161Z,65.09
2018-04-24T02:57:58.926Z,65.24
2018-04-24T03:00:27.150Z,65.02
2018-04-24T03:02:55.374Z,65.75
2018-04-24T03:05:38.243Z,65.67
2018-04-24T03:08:11.785Z,65.25
2018-04-24T03:10:40.539Z,65.73
2018-04-24T03:13:09.219Z,66.97
2018-04-24T03:15:37.456Z,65.44
2018-04-24T03:18:05.768Z,65.70
2018-04-24T03:20:34.493Z,65.57
2018-04-24T03:23:02.742Z,65.59
2018-04-24T03:25:31.053Z,67.12
2018-04-24T03:27:59.639Z,66.38
2018-04-24T03:30:27.879Z,65.91
2018-04-24T03:32:56.130Z,65.90
2018-04-24T03:35:24.667Z,65.72
2018-04-24T03:37:52.850Z,66.13
2018-04-24T03:40:21.280Z,66.54
2018-04-24T03:42:49.902Z,66.37
2018-04-24T03:45:18.088Z,66.35
2018-04-24T03:47:46.534Z,66.75
2018-04-24T03:50:15.079Z,66.47
2018-04-24T03:52:43.289Z,66.90
2018-04-24T03:55:11.674Z,67.01
2018-04-24T03:57:40.153Z,67.73
2018-04-24T04:00:08.379Z,66.78
2018-04-24T04:02:36.781Z,66.98
2018-04-24T04:05:05.463Z,66.90
2018-04-24T04:07:33.682Z,67.12
2018-04-24T04:10:02.073Z,67.32
2018-04-24T04:12:30.689Z,67.15
2018-04-24T04:14:58.895Z,67.66
2018-04-24T04:17:40.111Z,67.09
2018-04-24T04:20:20.771Z,66.88
2018-04-24T04:23:00.970Z,67.16
2018-04-24T04:25:29.184Z,66.88
2018-04-24T04:27:57.393Z,67.24
2018-04-24T04:30:25.899Z,66.79
2018-04-24T04:32:54.188Z,67.49
2018-04-24T04:35:22.479Z,66.74
2018-04-24T04:37:51.041Z,66.51
2018-04-24T04:40:19.247Z,66.48
2018-04-24T04:42:47.538Z,66.17
2018-04-24T04:45:16.263Z,66.22
2018-04-24T04:48:02.620Z,65.71
2018-04-24T04:50:36.232Z,66.11
2018-04-24T04:53:04.459Z,66.22
2018-04-24T04:55:33.195Z,66.24
2018-04-24T04:58:01.928Z,66.73
2018-04-24T05:00:30.232Z,66.20
2018-04-24T05:02:58.581Z,65.97
2018-04-24T05:05:27.450Z,66.09
2018-04-24T05:07:55.654Z,66.08
2018-04-24T05:10:23.843Z,66.31
2018-04-24T05:12:52.478Z,65.68
2018-04-24T05:15:20.714Z,65.79
2018-04-24T05:17:48.921Z,65.52
2018-04-24T05:20:17.557Z,66.10
2018-04-24T05:22:45.807Z,65.92
2018-04-24T05:25:14.009Z,64.94
2018-04-24T05:27:43.417Z,65.64
2018-04-24T05:30:12.310Z,64.99
2018-04-24T05:32:40.521Z,65.31
2018-04-24T05:35:08.722Z,65.23
2018-04-24T05:37:37.440Z,64.55
2018-04-24T05:40:05.659Z,64.60
2018-04-24T05:42:33.897Z,64.54
2018-04-24T05:45:02.498Z,64.28
2018-04-24T05:47:30.714Z,64.49
2018-04-24T05:49:59.026Z,64.20
2018-04-24T05:52:27.738Z,64.48
2018-04-24T05:54:55.899Z,63.89
2018-04-24T05:57:25.702Z,63.93
2018-04-24T05:59:54.646Z,63.79
2018-04-24T06:02:25.891Z,63.71
2018-04-24T06:04:57.547Z,63.53
2018-04-24T06:07:27.550Z,63.73
2018-04-24T06:10:02.519Z,63.79
2018-04-24T06:12:36.371Z,63.59
2018-04-24T06:15:04.989Z,63.38
2018-04-24T06:17:33.257Z,63.35
2018-04-24T06:20:01.786Z,63.43
2018-04-24T06:22:33.003Z,63.22
2018-04-24T06:25:02.920Z,63.26
2018-04-24T06:27:33.622Z,63.49
2018-04-24T06:30:03.391Z,62.48
2018-04-24T06:32:31.837Z,62.07
2018-04-24T06:35:00.061Z,62.14
2018-04-24T06:37:28.850Z,61.82
2018-04-24T06:39:57.469Z,61.46
2018-04-24T06:42:25.689Z,62.35
2018-04-24T06:44:53.953Z,61.28
2018-04-24T06:47:22.533Z,61.32
2018-04-24T06:49:51.953Z,60.98
2018-04-24T06:52:20.132Z,60.88
2018-04-24T06:54:48.345Z,60.71
2018-04-24T06:57:16.560Z,60.71
2018-04-24T06:59:44.890Z,60.63
2018-04-24T07:02:13.594Z,60.39
2018-04-24T07:04:41.805Z,60.49
2018-04-24T07:07:09.996Z,61.54
2018-04-24T07:09:38.589Z,60.59
2018-04-24T07:12:06.789Z,60.08
2018-04-24T07:14:34.992Z,60.13
2018-04-24T07:17:03.672Z,60.91
2018-04-24T07:19:31.884Z,60.09
2018-04-24T07:22:00.187Z,60.15
2018-04-24T07:24:28.680Z,59.93
2018-04-24T07:26:56.880Z,60.17
2018-04-24T07:29:25.101Z,60.67
2018-04-24T07:31:53.815Z,60.58
2018-04-24T07:34:22.025Z,60.53
2018-04-24T07:36:50.247Z,60.39
2018-04-24T07:39:18.937Z,60.90
2018-04-24T07:41:47.133Z,59.91
2018-04-24T07:44:15.343Z,60.29
2018-04-24T07:46:44.080Z,59.93
2018-04-24T07:49:12.296Z,60.15
2018-04-24T07:51:40.513Z,59.78
2018-04-24T07:54:09.133Z,61.04
2018-04-24T07:56:37.914Z,59.90
2018-04-24T07:59:06.260Z,59.51
2018-04-24T08:01:34.967Z,59.85
2018-04-24T08:04:03.166Z,59.01
2018-04-24T08:06:31.468Z,59.03
2018-04-24T08:08:59.974Z,59.64
2018-04-24T08:11:28.206Z,60.70
2018-04-24T08:13:56.606Z,61.31
2018-04-24T08:16:25.114Z,61.74
2018-04-24T08:18:53.344Z,62.78
2018-04-24T08:21:21.637Z,63.13
2018-04-24T08:23:50.140Z,62.62
2018-04-24T08:26:18.463Z,62.30
2018-04-24T08:28:46.724Z,62.79
2018-04-24T08:31:15.316Z,62.57
2018-04-24T08:33:43.563Z,62.95
2018-04-24T08:36:11.934Z,62.81
2018-04-24T08:38:40.401Z,63.84
2018-04-24T08:41:08.604Z,63.55
2018-04-24T08:43:36.899Z,64.24
2018-04-24T08:46:05.591Z,64.97
2018-04-24T08:48:33.829Z,66.22
2018-04-24T08:51:02.085Z,67.87
2018-04-24T08:53:30.631Z,69.53
2018-04-24T08:55:58.890Z,69.93
2018-04-24T08:58:27.167Z,71.74
2018-04-24T09:00:55.792Z,73.11
2018-04-24T09:03:23.997Z,73.83
2018-04-24T09:05:52.348Z,73.56
2018-04-24T09:08:20.787Z,73.49
2018-04-24T09:10:49.026Z,75.29
2018-04-24T09:13:17.339Z,76.03
2018-04-24T09:15:46.412Z,77.37
2018-04-24T09:18:14.640Z,78.84
2018-04-24T09:20:42.898Z,80.72
2018-04-24T09:23:11.538Z,81.14
2018-04-24T09:25:39.763Z,80.09
2018-04-24T09:28:07.976Z,81.37
2018-04-24T09:30:36.589Z,81.58
2018-04-24T09:33:04.842Z,81.57
2018-04-24T09:35:33.074Z,80.14
2018-04-24T09:38:01.679Z,80.16
2018-04-24T09:40:29.896Z,79.72
2018-04-24T09:42:58.099Z,78.45
2018-04-24T09:45:26.411Z,78.09
2018-04-24T09:47:54.606Z,78.24
2018-04-24T09:50:23.012Z,77.18
2018-04-24T09:52:51.624Z,75.87
2018-04-24T09:55:19.824Z,75.89
2018-04-24T09:57:48.046Z,73.97
2018-04-24T10:00:22.387Z,73.83
2018-04-24T10:02:51.125Z,73.25
2018-04-24T10:05:19.337Z,73.77
2018-04-24T10:07:47.580Z,72.66
2018-04-24T10:10:16.301Z,72.32
2018-04-24T10:12:44.500Z,72.46
2018-04-24T10:15:12.702Z,71.91
2018-04-24T10:17:41.332Z,71.38
2018-04-24T10:20:09.542Z,71.19
2018-04-24T10:22:37.776Z,72.84
2018-04-24T10:25:06.482Z,72.21
2018-04-24T10:27:34.679Z,71.92
2018-04-24T10:30:02.890Z,71.52
2018-04-24T10:32:31.505Z,71.91
2018-04-24T10:34:59.684Z,71.13
2018-04-24T10:37:27.901Z,70.33
2018-04-24T10:39:56.625Z,70.06
2018-04-24T10:42:24.826Z,69.44
2018-04-24T10:44:53.026Z,69.49
2018-04-24T10:47:21.744Z,69.38
2018-04-24T10:49:49.941Z,69.67
2018-04-24T10:52:18.153Z,70.17
2018-04-24T10:54:46.814Z,69.37
2018-04-24T10:57:15.015Z,68.15
2018-04-24T10:59:43.230Z,68.02
2018-04-24T11:02:11.909Z,68.17
2018-04-24T11:04:40.114Z,68.04
2018-04-24T11:07:08.390Z,67.61
2018-04-24T11:09:37.167Z,66.99
2018-04-24T11:12:05.405Z,66.88
2018-04-24T11:14:33.644Z,66.31
2018-04-24T11:17:02.228Z,65.99
2018-04-24T11:19:30.440Z,65.25
2018-04-24T11:21:58.676Z,65.25
2018-04-24T11:24:27.269Z,66.35
2018-04-24T11:26:55.475Z,65.18
2018-04-24T11:29:23.653Z,64.59
2018-04-24T11:31:52.360Z,64.00
2018-04-24T11:34:20.633Z,63.56
2018-04-24T11:36:48.792Z,63.15
2018-04-24T11:39:17.496Z,64.21
2018-04-24T11:41:45.679Z,62.93
2018-04-24T11:44:13.963Z,63.15
2018-04-24T11:46:42.620Z,63.20
2018-04-24T11:49:10.855Z,63.18
2018-04-24T11:51:39.077Z,63.59
2018-04-24T11:54:07.771Z,63.46
2018-04-24T11:56:35.992Z,63.82
2018-04-24T11:59:04.191Z,62.69
2018-04-24T12:01:32.812Z,62.58
2018-04-24T12:04:01.009Z,62.79
2018-04-24T12:06:29.227Z,62.64
2018-04-24T12:08:57.922Z,62.87
2018-04-24T12:11:26.126Z,62.08
2018-04-24T12:13:54.318Z,62.12
2018-04-24T12:16:23.072Z,61.02
2018-04-24T12:18:51.284Z,61.36
2018-04-24T12:21:19.490Z,61.76
2018-04-24T12:23:48.189Z,60.39
2018-04-24T12:26:16.460Z,60.73
2018-04-24T12:28:44.650Z,60.48
2018-04-24T12:31:13.326Z,60.53
2018-04-24T12:33:41.544Z,59.86
2018-04-24T12:36:09.757Z,59.31
2018-04-24T12:38:38.404Z,59.41
2018-04-24T12:41:06.617Z,58.95
2018-04-24T12:43:34.813Z,58.75
2018-04-24T12:46:03.521Z,59.38
2018-04-24T12:48:31.737Z,58.75
2018-04-24T12:50:59.949Z,59.10
2018-04-24T12:53:28.579Z,58.63
2018-04-24T12:55:56.800Z,57.79
2018-04-24T12:58:25.035Z,57.84
2018-04-24T13:00:53.595Z,58.61
2018-04-24T13:03:21.815Z,57.82
2018-04-24T13:05:50.221Z,57.04
2018-04-24T13:08:18.947Z,57.36
2018-04-24T13:10:47.149Z,56.31
2018-04-24T13:13:15.364Z,55.41
2018-04-24T13:15:44.038Z,55.52
2018-04-24T13:18:12.279Z,55.33
2018-04-24T13:20:40.513Z,53.79
2018-04-24T13:23:09.122Z,54.38
2018-04-24T13:25:37.411Z,52.89
2018-04-24T13:28:05.595Z,53.26
2018-04-24T13:30:34.195Z,53.23
2018-04-24T13:33:02.414Z,53.46
2018-04-24T13:35:30.629Z,52.49
2018-04-24T13:37:59.374Z,51.31
2018-04-24T13:40:27.574Z,51.59
2018-04-24T13:42:55.796Z,51.23
2018-04-24T13:45:24.481Z,51.48
2018-04-24T13:47:52.695Z,51.41
2018-04-24T13:50:20.902Z,51.71
2018-04-24T13:52:49.550Z,51.08
2018-04-24T13:55:17.850Z,50.57
2018-04-24T13:57:45.964Z,50.21
2018-04-24T14:00:15.242Z,50.52
2018-04-24T14:02:43.447Z,51.15
2018-04-24T14:05:11.754Z,50.23
2018-04-24T14:07:40.404Z,48.75
2018-04-24T14:10:08.652Z,48.69
2018-04-24T14:12:37.001Z,48.17
2018-04-24T14:15:05.419Z,47.75
2018-04-24T14:17:33.644Z,48.10
2018-04-24T14:20:02.044Z,47.62
2018-04-24T14:22:30.542Z,48.46
2018-04-24T14:24:58.733Z,48.83
2018-04-24T14:27:27.061Z,48.73
2018-04-24T14:29:55.605Z,48.35
2018-04-24T14:32:23.836Z,48.10
2018-04-24T14:34:52.131Z,47.87
2018-04-24T14:37:20.820Z,48.44
2018-04-24T14:39:49.061Z,46.66
2018-04-24T14:42:22.222Z,46.84
2018-04-24T14:44:50.899Z,45.69
2018-04-24T14:47:19.109Z,44.91
2018-04-24T14:49:47.350Z,46.47
2018-04-24T14:52:15.884Z,46.44
2018-04-24T14:54:44.129Z,46.35
2018-04-24T14:57:12.558Z,47.44
2018-04-24T14:59:41.070Z,46.99
2018-04-24T15:02:09.306Z,45.79
2018-04-24T15:04:37.547Z,45.56
2018-04-24T15:07:06.089Z,46.04
2018-04-24T15:09:34.305Z,46.71
2018-04-24T15:12:02.480Z,46.38
2018-04-24T15:14:31.116Z,46.29
2018-04-24T15:16:59.361Z,46.89
2018-04-24T15:19:27.574Z,46.44
2018-04-24T15:21:56.154Z,46.92
2018-04-24T15:24:24.357Z,47.79
2018-04-24T15:26:52.600Z,47.65
2018-04-24T15:29:20.844Z,46.65
2018-04-24T15:31:50.598Z,47.12
2018-04-24T15:34:19.469Z,46.94
2018-04-24T15:36:48.279Z,47.53
2018-04-24T15:39:17.287Z,47.38
2018-04-24T15:41:45.506Z,47.58
2018-04-24T15:44:14.265Z,47.18
2018-04-24T15:46:43.240Z,47.34
2018-04-24T15:49:12.237Z,47.60
2018-04-24T15:51:40.466Z,48.13
2018-04-24T15:54:09.437Z,48.25
2018-04-24T15:56:38.250Z,49.37
2018-04-24T15:59:07.243Z,49.09
2018-04-24T16:01:35.449Z,48.75
2018-04-24T16:04:05.213Z,48.66
2018-04-24T16:06:33.643Z,49.10
2018-04-24T16:09:02.423Z,49.30
2018-04-24T16:11:30.747Z,49.29
2018-04-24T16:13:59.445Z,49.66
2018-04-24T16:16:28.301Z,49.52
2018-04-24T16:18:57.345Z,50.29
2018-04-24T16:21:25.563Z,50.22
2018-04-24T16:23:54.326Z,50.52
2018-04-24T16:26:23.264Z,49.95
2018-04-24T16:28:52.288Z,50.68
2018-04-24T16:31:20.525Z,51.08
2018-04-24T16:33:49.325Z,50.93
2018-04-24T16:36:18.110Z,51.55
2018-04-24T16:38:47.140Z,51.09
2018-04-24T16:41:15.355Z,51.55
2018-04-24T16:43:44.184Z,52.05
2018-04-24T16:46:12.933Z,51.83
2018-04-24T16:48:41.175Z,51.79
2018-04-24T16:51:09.406Z,51.72
2018-04-24T16:53:38.184Z,51.34
2018-04-24T16:56:07.130Z,51.30
2018-04-24T16:58:35.360Z,51.63
2018-04-24T17:01:04.256Z,51.60
2018-04-24T17:03:33.028Z,51.72
2018-04-24T17:06:02.169Z,51.79
2018-04-24T17:08:30.318Z,51.67
2018-04-24T17:10:59.165Z,52.17
2018-04-24T17:13:28.025Z,52.05
2018-04-24T17:15:57.024Z,51.76
2018-04-24T17:18:25.234Z,51.41
2018-04-24T17:20:54.035Z,51.56
2018-04-24T17:23:22.932Z,52.05
2018-04-24T17:25:51.888Z,52.24
2018-04-24T17:28:20.092Z,52.67
2018-04-24T17:30:49.016Z,52.73
2018-04-24T17:33:17.474Z,53.06
2018-04-24T17:35:45.680Z,52.95
2018-04-24T17:38:13.864Z,53.11
2018-04-24T17:40:42.438Z,53.52
2018-04-24T17:43:10.649Z,53.98
2018-04-24T17:45:39.002Z,54.32
2018-04-24T17:48:07.529Z,54.49
2018-04-24T17:50:35.727Z,54.88
2018-04-24T17:53:04.125Z,55.10
2018-04-24T17:55:32.722Z,55.37
2018-04-24T17:58:00.993Z,56.05
2018-04-24T18:00:29.206Z,55.88
2018-04-24T18:02:57.892Z,56.33
2018-04-24T18:05:26.175Z,56.65
2018-04-24T18:07:54.378Z,56.49
2018-04-24T18:10:22.858Z,56.64
2018-04-24T18:12:51.870Z,56.74
2018-04-24T18:15:20.084Z,57.30
2018-04-24T18:17:48.667Z,57.09
2018-04-24T18:20:17.522Z,57.37
2018-04-24T18:22:45.725Z,57.62
2018-04-24T18:25:14.114Z,57.44
2018-04-24T18:27:42.881Z,57.76
2018-04-24T18:30:11.063Z,57.79
2018-04-24T18:32:39.314Z,57.47
2018-04-24T18:35:08.859Z,57.65
2018-04-24T18:37:37.127Z,58.09
2018-04-24T18:40:05.365Z,58.22
2018-04-24T18:42:33.837Z,57.89
2018-04-24T18:45:02.057Z,58.15
2018-04-24T18:47:30.494Z,58.27
2018-04-24T18:49:58.949Z,58.30
2018-04-24T18:52:27.137Z,59.04
2018-04-24T18:54:55.891Z,59.72
2018-04-24T18:57:24.373Z,60.38
2018-04-24T18:59:52.592Z,60.00
2018-04-24T19:02:20.946Z,60.62
2018-04-24T19:04:49.538Z,60.15
2018-04-24T19:07:17.741Z,60.15
2018-04-24T19:09:46.020Z,60.09
2018-04-24T19:12:14.566Z,59.78
2018-04-24T19:14:42.791Z,59.90
2018-04-24T19:17:11.091Z,60.20
2018-04-24T19:19:39.615Z,60.42
2018-04-24T19:22:07.834Z,60.42
2018-04-24T19:24:41.911Z,59.86
2018-04-24T19:27:10.394Z,59.88
2018-04-24T19:29:39.016Z,60.18
2018-04-24T19:32:12.829Z,60.78
2018-04-24T19:34:41.128Z,60.35
2018-04-24T19:37:09.601Z,60.29
2018-04-24T19:39:44.110Z,60.32
2018-04-24T19:42:12.361Z,60.18
2018-04-24T19:44:41.086Z,60.46
2018-04-24T19:47:09.663Z,60.41
2018-04-24T19:49:44.231Z,60.43
2018-04-24T19:52:12.433Z,60.40
2018-04-24T19:54:46.960Z,60.64
2018-04-24T19:57:15.409Z,60.29
2018-04-24T19:59:44.033Z,60.87
2018-04-24T20:02:12.259Z,60.88
2018-04-24T20:04:40.484Z,60.87
2018-04-24T20:07:09.092Z,60.93
2018-04-24T20:09:37.311Z,60.90
2018-04-24T20:12:06.077Z,60.88
2018-04-24T20:14:34.557Z,60.85
2018-04-24T20:17:02.790Z,60.95
2018-04-24T20:19:31.034Z,60.93
2018-04-24T20:21:59.527Z,61.08
2018-04-24T20:24:27.799Z,61.05
2018-04-24T20:26:56.044Z,60.94
2018-04-24T20:29:24.591Z,61.08
2018-04-24T20:31:52.841Z,61.22
2018-04-24T20:34:21.056Z,61.61
2018-04-24T20:36:49.605Z,61.67
2018-04-24T20:39:17.834Z,61.95
2018-04-24T20:41:46.111Z,62.10
2018-04-24T20:44:14.807Z,62.18
2018-04-24T20:46:43.028Z,62.34
2018-04-24T20:49:11.297Z,62.41
2018-04-24T20:51:39.809Z,62.57
2018-04-24T20:54:08.012Z,63.00
2018-04-24T20:56:36.335Z,62.97
2018-04-24T20:59:04.934Z,62.82
2018-04-24T21:01:33.163Z,62.99
2018-04-24T21:04:01.385Z,62.97
2018-04-24T21:06:29.988Z,62.96
2018-04-24T21:08:58.224Z,63.09
2018-04-24T21:11:26.474Z,63.20
2018-04-24T21:13:55.130Z,63.62
2018-04-24T21:16:23.364Z,63.80
2018-04-24T21:18:51.601Z,64.19
2018-04-24T21:21:20.194Z,64.28
2018-04-24T21:23:48.387Z,64.35
2018-04-24T21:26:16.685Z,64.36
2018-04-24T21:28:45.337Z,64.33
2018-04-24T21:31:13.537Z,64.56
2018-04-24T21:33:41.942Z,64.51
2018-04-24T21:36:10.425Z,64.61
2018-04-24T21:38:38.622Z,64.80
2018-04-24T21:41:06.875Z,64.79
2018-04-24T21:43:35.420Z,64.78
2018-04-24T21:46:03.660Z,65.02
2018-04-24T21:48:32.132Z,65.06
2018-04-24T21:51:00.603Z,65.13
2018-04-24T21:53:28.821Z,65.22
2018-04-24T21:55:57.223Z,65.17
2018-04-24T21:58:25.720Z,65.23
2018-04-24T22:00:53.946Z,65.42
2018-04-24T22:03:22.279Z,65.27
2018-04-24T22:05:50.814Z,65.27
2018-04-24T22:08:19.026Z,65.36
2018-04-24T22:10:47.396Z,65.40
2018-04-24T22:13:15.920Z,65.33
2018-04-24T22:15:44.134Z,65.42
2018-04-24T22:18:13.081Z,65.22
2018-04-24T22:20:41.723Z,65.51
2018-04-24T22:23:10.452Z,65.43
2018-04-24T22:25:38.661Z,65.59
2018-04-24T22:28:06.879Z,65.49
2018-04-24T22:30:35.570Z,65.39
2018-04-24T22:33:03.826Z,65.39
2018-04-24T22:35:32.022Z,65.51
2018-04-24T22:38:00.631Z,65.10
2018-04-24T22:40:28.849Z,65.10
2018-04-24T22:42:57.137Z,65.11
2018-04-24T22:45:25.744Z,64.79
2018-04-24T22:47:53.946Z,64.86
2018-04-24T22:50:22.144Z,64.90
2018-04-24T22:52:50.770Z,64.72
2018-04-24T22:55:18.987Z,64.93
2018-04-24T22:57:47.256Z,64.77
2018-04-24T23:00:16.423Z,64.70
2018-04-24T23:02:44.629Z,64.90
2018-04-24T23:05:13.040Z,64.97
2018-04-24T23:07:41.541Z,64.69
2018-04-24T23:10:09.205Z,64.65
2018-04-24T23:12:49.193Z,64.85
2018-04-24T23:15:29.287Z,64.55
2018-04-24T23:18:09.415Z,65.01
2018-04-24T23:20:37.063Z,64.34
2018-04-24T23:23:05.312Z,64.46
2018-04-24T23:25:33.541Z,64.33
2018-04-24T23:28:02.303Z,63.83
2018-04-24T23:30:30.623Z,63.78
2018-04-24T23:32:58.795Z,64.01
2018-04-24T23:35:27.394Z,64.13
2018-04-24T23:37:55.634Z,64.10
2018-04-24T23:40:23.869Z,63.86
2018-04-24T23:42:52.520Z,63.98
2018-04-24T23:45:20.768Z,63.91
2018-04-24T23:47:48.980Z,63.83
2018-04-24T23:50:17.596Z,63.37
2018-04-24T23:52:45.866Z,63.79
2018-04-24T23:55:14.073Z,63.46
2018-04-24T23:57:42.825Z,63.44
